sensor_id;sensor_type;location;lat;lon;timestamp;temperature;humidity
52209;DHT22;38507;53.132;6.394;2023-07-20T00:01:59;15.30;99.90
52209;DHT22;38507;53.132;6.394;2023-07-20T00:04:24;15.30;99.90
52209;DHT22;38507;53.132;6.394;2023-07-20T00:06:50;15.30;99.90
52209;DHT22;38507;53.132;6.394;2023-07-20T00:09:16;15.30;99.90
52209;DHT22;38507;53.132;6.394;2023-07-20T00:11:48;15.30;99.90
52209;DHT22;38507;53.132;6.394;2023-07-20T00:14:15;15.30;99.90
52209;DHT22;38507;53.132;6.394;2023-07-20T00:16:40;15.30;99.90
52209;DHT22;38507;53.132;6.394;2023-07-20T00:19:06;15.30;99.90
52209;DHT22;38507;53.132;6.394;2023-07-20T00:21:32;15.20;99.90
52209;DHT22;38507;53.132;6.394;2023-07-20T00:23:58;15.30;99.90
52209;DHT22;38507;53.132;6.394;2023-07-20T00:26:23;15.20;99.90
52209;DHT22;38507;53.132;6.394;2023-07-20T00:28:50;15.20;99.90
52209;DHT22;38507;53.132;6.394;2023-07-20T00:31:16;15.20;99.90
52209;DHT22;38507;53.132;6.394;2023-07-20T00:33:42;15.20;99.90
52209;DHT22;38507;53.132;6.394;2023-07-20T00:36:07;15.20;99.90
52209;DHT22;38507;53.132;6.394;2023-07-20T00:38:33;15.20;99.90
52209;DHT22;38507;53.132;6.394;2023-07-20T00:40:59;15.10;99.90
52209;DHT22;38507;53.132;6.394;2023-07-20T00:43:24;15.10;99.90
52209;DHT22;38507;53.132;6.394;2023-07-20T00:45:50;15.10;99.90
52209;DHT22;38507;53.132;6.394;2023-07-20T00:48:16;14.90;99.90
52209;DHT22;38507;53.132;6.394;2023-07-20T00:50:42;15.00;99.90
52209;DHT22;38507;53.132;6.394;2023-07-20T00:53:08;14.90;99.90
52209;DHT22;38507;53.132;6.394;2023-07-20T00:55:34;14.90;99.90
52209;DHT22;38507;53.132;6.394;2023-07-20T00:58:00;14.80;99.90
52209;DHT22;38507;53.132;6.394;2023-07-20T01:00:26;14.70;99.90
52209;DHT22;38507;53.132;6.394;2023-07-20T01:02:53;14.50;99.90
52209;DHT22;38507;53.132;6.394;2023-07-20T01:05:19;14.50;99.90
52209;DHT22;38507;53.132;6.394;2023-07-20T01:10:43;14.40;99.90
52209;DHT22;38507;53.132;6.394;2023-07-20T01:13:10;14.30;99.90
52209;DHT22;38507;53.132;6.394;2023-07-20T01:15:36;14.20;99.90
52209;DHT22;38507;53.132;6.394;2023-07-20T01:18:02;14.20;99.90
52209;DHT22;38507;53.132;6.394;2023-07-20T01:20:31;14.00;99.90
52209;DHT22;38507;53.132;6.394;2023-07-20T01:31:25;13.90;99.90
52209;DHT22;38507;53.132;6.394;2023-07-20T01:33:54;13.80;99.90
52209;DHT22;38507;53.132;6.394;2023-07-20T01:36:22;13.80;99.90
52209;DHT22;38507;53.132;6.394;2023-07-20T01:38:48;13.80;99.90
52209;DHT22;38507;53.132;6.394;2023-07-20T01:41:15;13.70;99.90
52209;DHT22;38507;53.132;6.394;2023-07-20T01:43:42;13.60;99.90
52209;DHT22;38507;53.132;6.394;2023-07-20T01:46:08;13.60;99.90
52209;DHT22;38507;53.132;6.394;2023-07-20T01:48:33;13.60;99.90
52209;DHT22;38507;53.132;6.394;2023-07-20T01:50:59;13.50;99.90
52209;DHT22;38507;53.132;6.394;2023-07-20T01:53:25;13.50;99.90
52209;DHT22;38507;53.132;6.394;2023-07-20T01:55:56;13.40;99.90
52209;DHT22;38507;53.132;6.394;2023-07-20T01:58:22;13.30;99.90
52209;DHT22;38507;53.132;6.394;2023-07-20T02:00:47;13.40;99.90
52209;DHT22;38507;53.132;6.394;2023-07-20T02:03:13;13.20;99.90
52209;DHT22;38507;53.132;6.394;2023-07-20T02:05:39;13.30;99.90
52209;DHT22;38507;53.132;6.394;2023-07-20T02:08:05;13.20;99.90
52209;DHT22;38507;53.132;6.394;2023-07-20T02:10:30;13.20;99.90
52209;DHT22;38507;53.132;6.394;2023-07-20T02:12:56;13.10;99.90
52209;DHT22;38507;53.132;6.394;2023-07-20T02:15:22;13.00;99.90
52209;DHT22;38507;53.132;6.394;2023-07-20T02:17:48;12.90;99.90
52209;DHT22;38507;53.132;6.394;2023-07-20T02:20:13;12.90;99.90
52209;DHT22;38507;53.132;6.394;2023-07-20T02:22:39;12.80;99.90
52209;DHT22;38507;53.132;6.394;2023-07-20T02:25:06;12.80;99.90
52209;DHT22;38507;53.132;6.394;2023-07-20T02:27:36;12.70;99.90
52209;DHT22;38507;53.132;6.394;2023-07-20T02:30:02;12.70;99.90
52209;DHT22;38507;53.132;6.394;2023-07-20T02:32:29;12.60;99.90
52209;DHT22;38507;53.132;6.394;2023-07-20T02:34:55;12.50;99.90
52209;DHT22;38507;53.132;6.394;2023-07-20T02:37:20;12.50;99.90
52209;DHT22;38507;53.132;6.394;2023-07-20T02:39:46;12.40;99.90
52209;DHT22;38507;53.132;6.394;2023-07-20T02:42:12;12.30;99.90
52209;DHT22;38507;53.132;6.394;2023-07-20T02:44:38;12.30;99.90
52209;DHT22;38507;53.132;6.394;2023-07-20T02:47:04;12.20;99.90
52209;DHT22;38507;53.132;6.394;2023-07-20T02:49:29;12.20;99.90
52209;DHT22;38507;53.132;6.394;2023-07-20T02:51:55;12.20;99.90
52209;DHT22;38507;53.132;6.394;2023-07-20T02:54:21;12.20;99.90
52209;DHT22;38507;53.132;6.394;2023-07-20T02:56:47;12.20;99.90
52209;DHT22;38507;53.132;6.394;2023-07-20T02:59:12;12.20;99.90
52209;DHT22;38507;53.132;6.394;2023-07-20T03:01:38;12.20;99.90
52209;DHT22;38507;53.132;6.394;2023-07-20T03:04:04;12.20;99.90
52209;DHT22;38507;53.132;6.394;2023-07-20T03:06:29;12.20;99.90
52209;DHT22;38507;53.132;6.394;2023-07-20T03:08:56;12.10;99.90
52209;DHT22;38507;53.132;6.394;2023-07-20T03:11:22;12.10;99.90
52209;DHT22;38507;53.132;6.394;2023-07-20T03:13:48;12.20;99.90
52209;DHT22;38507;53.132;6.394;2023-07-20T03:16:17;12.10;99.90
52209;DHT22;38507;53.132;6.394;2023-07-20T03:18:43;12.20;99.90
52209;DHT22;38507;53.132;6.394;2023-07-20T03:21:10;11.90;99.90
52209;DHT22;38507;53.132;6.394;2023-07-20T03:23:41;11.80;99.90
52209;DHT22;38507;53.132;6.394;2023-07-20T03:26:07;11.90;99.90
52209;DHT22;38507;53.132;6.394;2023-07-20T03:28:36;11.70;99.90
52209;DHT22;38507;53.132;6.394;2023-07-20T03:31:05;11.70;99.90
52209;DHT22;38507;53.132;6.394;2023-07-20T03:33:31;11.60;99.90
52209;DHT22;38507;53.132;6.394;2023-07-20T03:35:58;11.60;99.90
52209;DHT22;38507;53.132;6.394;2023-07-20T03:38:25;11.70;99.90
52209;DHT22;38507;53.132;6.394;2023-07-20T03:40:52;11.50;99.90
52209;DHT22;38507;53.132;6.394;2023-07-20T03:43:18;11.50;99.90
52209;DHT22;38507;53.132;6.394;2023-07-20T03:45:44;11.30;99.90
52209;DHT22;38507;53.132;6.394;2023-07-20T03:48:11;11.30;99.90
52209;DHT22;38507;53.132;6.394;2023-07-20T03:50:37;11.20;99.90
52209;DHT22;38507;53.132;6.394;2023-07-20T03:53:03;11.20;99.90
52209;DHT22;38507;53.132;6.394;2023-07-20T03:55:28;11.20;99.90
52209;DHT22;38507;53.132;6.394;2023-07-20T03:57:54;11.10;99.90
52209;DHT22;38507;53.132;6.394;2023-07-20T04:00:20;11.10;99.90
52209;DHT22;38507;53.132;6.394;2023-07-20T04:02:45;11.00;99.90
52209;DHT22;38507;53.132;6.394;2023-07-20T04:05:11;11.00;99.90
52209;DHT22;38507;53.132;6.394;2023-07-20T04:07:36;11.00;99.90
52209;DHT22;38507;53.132;6.394;2023-07-20T04:10:02;11.00;99.90
52209;DHT22;38507;53.132;6.394;2023-07-20T04:12:28;11.00;99.90
52209;DHT22;38507;53.132;6.394;2023-07-20T04:14:53;11.10;99.90
52209;DHT22;38507;53.132;6.394;2023-07-20T04:17:19;10.90;99.90
52209;DHT22;38507;53.132;6.394;2023-07-20T04:19:45;10.90;99.90
52209;DHT22;38507;53.132;6.394;2023-07-20T04:22:10;10.90;99.90
52209;DHT22;38507;53.132;6.394;2023-07-20T04:24:36;10.90;99.90
52209;DHT22;38507;53.132;6.394;2023-07-20T04:27:02;10.90;99.90
52209;DHT22;38507;53.132;6.394;2023-07-20T04:29:27;11.00;99.90
52209;DHT22;38507;53.132;6.394;2023-07-20T04:31:53;11.00;99.90
52209;DHT22;38507;53.132;6.394;2023-07-20T04:34:19;11.10;99.90
52209;DHT22;38507;53.132;6.394;2023-07-20T04:36:44;11.10;99.90
52209;DHT22;38507;53.132;6.394;2023-07-20T04:39:10;11.00;99.90
52209;DHT22;38507;53.132;6.394;2023-07-20T04:41:37;11.00;99.90
52209;DHT22;38507;53.132;6.394;2023-07-20T04:44:02;11.00;99.90
52209;DHT22;38507;53.132;6.394;2023-07-20T04:46:28;11.10;99.90
52209;DHT22;38507;53.132;6.394;2023-07-20T04:48:54;11.10;99.90
52209;DHT22;38507;53.132;6.394;2023-07-20T04:51:19;11.10;99.90
52209;DHT22;38507;53.132;6.394;2023-07-20T04:53:46;11.10;99.90
52209;DHT22;38507;53.132;6.394;2023-07-20T04:56:12;11.20;99.90
52209;DHT22;38507;53.132;6.394;2023-07-20T04:58:38;11.20;99.90
52209;DHT22;38507;53.132;6.394;2023-07-20T05:01:03;11.20;99.90
52209;DHT22;38507;53.132;6.394;2023-07-20T05:03:29;11.30;99.90
52209;DHT22;38507;53.132;6.394;2023-07-20T05:05:55;11.40;99.90
52209;DHT22;38507;53.132;6.394;2023-07-20T05:08:20;11.40;99.90
52209;DHT22;38507;53.132;6.394;2023-07-20T05:10:48;11.50;99.90
52209;DHT22;38507;53.132;6.394;2023-07-20T05:13:14;11.50;99.90
52209;DHT22;38507;53.132;6.394;2023-07-20T05:15:39;11.60;99.90
52209;DHT22;38507;53.132;6.394;2023-07-20T05:18:05;11.60;99.90
52209;DHT22;38507;53.132;6.394;2023-07-20T05:20:31;11.70;99.90
52209;DHT22;38507;53.132;6.394;2023-07-20T05:22:59;11.70;99.90
52209;DHT22;38507;53.132;6.394;2023-07-20T05:25:24;11.80;99.90
52209;DHT22;38507;53.132;6.394;2023-07-20T05:27:51;11.80;99.90
52209;DHT22;38507;53.132;6.394;2023-07-20T05:30:17;11.90;99.90
52209;DHT22;38507;53.132;6.394;2023-07-20T05:32:44;12.00;99.90
52209;DHT22;38507;53.132;6.394;2023-07-20T05:35:13;12.20;99.90
52209;DHT22;38507;53.132;6.394;2023-07-20T05:37:39;12.40;99.90
52209;DHT22;38507;53.132;6.394;2023-07-20T05:40:05;12.50;99.90
52209;DHT22;38507;53.132;6.394;2023-07-20T05:42:33;12.70;99.90
52209;DHT22;38507;53.132;6.394;2023-07-20T05:44:59;12.90;99.90
52209;DHT22;38507;53.132;6.394;2023-07-20T05:47:24;13.00;99.90
52209;DHT22;38507;53.132;6.394;2023-07-20T05:49:50;13.10;99.90
52209;DHT22;38507;53.132;6.394;2023-07-20T05:52:15;13.20;99.90
52209;DHT22;38507;53.132;6.394;2023-07-20T05:54:41;13.30;99.90
52209;DHT22;38507;53.132;6.394;2023-07-20T05:57:07;13.40;99.90
52209;DHT22;38507;53.132;6.394;2023-07-20T05:59:33;13.60;99.90
52209;DHT22;38507;53.132;6.394;2023-07-20T06:01:59;13.80;99.90
52209;DHT22;38507;53.132;6.394;2023-07-20T06:04:24;13.90;99.90
52209;DHT22;38507;53.132;6.394;2023-07-20T06:06:50;14.00;99.90
52209;DHT22;38507;53.132;6.394;2023-07-20T06:09:15;14.10;99.90
52209;DHT22;38507;53.132;6.394;2023-07-20T06:11:41;14.30;99.90
52209;DHT22;38507;53.132;6.394;2023-07-20T06:14:07;14.50;99.90
52209;DHT22;38507;53.132;6.394;2023-07-20T06:16:33;14.60;99.90
52209;DHT22;38507;53.132;6.394;2023-07-20T06:19:00;14.60;99.90
52209;DHT22;38507;53.132;6.394;2023-07-20T06:21:25;14.70;99.90
52209;DHT22;38507;53.132;6.394;2023-07-20T06:23:51;14.90;99.90
52209;DHT22;38507;53.132;6.394;2023-07-20T06:26:16;15.00;99.90
52209;DHT22;38507;53.132;6.394;2023-07-20T06:28:42;15.10;99.90
52209;DHT22;38507;53.132;6.394;2023-07-20T06:31:08;15.20;99.90
52209;DHT22;38507;53.132;6.394;2023-07-20T06:33:33;15.40;99.90
52209;DHT22;38507;53.132;6.394;2023-07-20T06:36:00;15.40;99.90
52209;DHT22;38507;53.132;6.394;2023-07-20T06:38:26;15.60;99.90
52209;DHT22;38507;53.132;6.394;2023-07-20T06:40:58;15.70;99.90
52209;DHT22;38507;53.132;6.394;2023-07-20T06:43:24;15.80;99.90
52209;DHT22;38507;53.132;6.394;2023-07-20T06:45:53;15.90;99.90
52209;DHT22;38507;53.132;6.394;2023-07-20T06:48:19;16.00;99.90
52209;DHT22;38507;53.132;6.394;2023-07-20T06:50:45;16.20;99.90
52209;DHT22;38507;53.132;6.394;2023-07-20T06:53:10;16.40;99.90
52209;DHT22;38507;53.132;6.394;2023-07-20T06:55:36;16.60;99.90
52209;DHT22;38507;53.132;6.394;2023-07-20T06:58:01;16.70;99.90
52209;DHT22;38507;53.132;6.394;2023-07-20T07:00:28;16.90;99.90
52209;DHT22;38507;53.132;6.394;2023-07-20T07:02:54;17.10;99.90
52209;DHT22;38507;53.132;6.394;2023-07-20T07:05:20;17.30;99.90
52209;DHT22;38507;53.132;6.394;2023-07-20T07:07:45;17.50;99.90
52209;DHT22;38507;53.132;6.394;2023-07-20T07:10:11;17.60;99.90
52209;DHT22;38507;53.132;6.394;2023-07-20T07:12:36;17.90;99.90
52209;DHT22;38507;53.132;6.394;2023-07-20T07:15:03;18.00;99.90
52209;DHT22;38507;53.132;6.394;2023-07-20T07:17:31;18.20;99.90
52209;DHT22;38507;53.132;6.394;2023-07-20T07:19:58;18.40;99.90
52209;DHT22;38507;53.132;6.394;2023-07-20T07:22:24;18.40;99.90
52209;DHT22;38507;53.132;6.394;2023-07-20T07:24:50;18.60;99.90
52209;DHT22;38507;53.132;6.394;2023-07-20T07:27:16;18.60;99.90
52209;DHT22;38507;53.132;6.394;2023-07-20T07:29:42;18.60;99.90
52209;DHT22;38507;53.132;6.394;2023-07-20T07:32:12;18.60;99.90
52209;DHT22;38507;53.132;6.394;2023-07-20T07:34:38;18.80;99.90
52209;DHT22;38507;53.132;6.394;2023-07-20T07:37:04;18.70;99.90
52209;DHT22;38507;53.132;6.394;2023-07-20T07:39:31;18.70;99.90
52209;DHT22;38507;53.132;6.394;2023-07-20T07:41:57;18.60;99.90
52209;DHT22;38507;53.132;6.394;2023-07-20T07:44:23;18.30;99.90
52209;DHT22;38507;53.132;6.394;2023-07-20T07:46:49;18.40;99.90
52209;DHT22;38507;53.132;6.394;2023-07-20T07:49:15;18.60;99.90
52209;DHT22;38507;53.132;6.394;2023-07-20T07:51:41;18.80;99.90
52209;DHT22;38507;53.132;6.394;2023-07-20T07:54:06;18.90;99.90
52209;DHT22;38507;53.132;6.394;2023-07-20T07:56:32;19.30;99.90
52209;DHT22;38507;53.132;6.394;2023-07-20T07:58:58;19.60;99.90
52209;DHT22;38507;53.132;6.394;2023-07-20T08:01:23;19.80;99.90
52209;DHT22;38507;53.132;6.394;2023-07-20T08:03:49;19.80;99.90
52209;DHT22;38507;53.132;6.394;2023-07-20T08:06:15;19.80;99.90
52209;DHT22;38507;53.132;6.394;2023-07-20T08:08:41;20.00;99.90
52209;DHT22;38507;53.132;6.394;2023-07-20T08:11:08;20.10;99.90
52209;DHT22;38507;53.132;6.394;2023-07-20T08:13:34;20.20;99.90
52209;DHT22;38507;53.132;6.394;2023-07-20T08:16:01;20.10;99.90
52209;DHT22;38507;53.132;6.394;2023-07-20T08:18:29;19.80;99.90
52209;DHT22;38507;53.132;6.394;2023-07-20T08:20:55;19.70;99.90
52209;DHT22;38507;53.132;6.394;2023-07-20T08:23:21;19.80;99.90
52209;DHT22;38507;53.132;6.394;2023-07-20T08:25:47;19.80;99.90
52209;DHT22;38507;53.132;6.394;2023-07-20T08:28:14;20.10;99.90
52209;DHT22;38507;53.132;6.394;2023-07-20T08:30:45;19.80;99.90
52209;DHT22;38507;53.132;6.394;2023-07-20T08:33:12;19.70;99.90
52209;DHT22;38507;53.132;6.394;2023-07-20T08:35:38;20.10;99.90
52209;DHT22;38507;53.132;6.394;2023-07-20T08:38:04;20.20;99.90
52209;DHT22;38507;53.132;6.394;2023-07-20T08:40:31;20.40;99.90
52209;DHT22;38507;53.132;6.394;2023-07-20T08:42:58;20.60;99.90
52209;DHT22;38507;53.132;6.394;2023-07-20T08:45:27;20.80;99.90
52209;DHT22;38507;53.132;6.394;2023-07-20T08:47:56;21.00;99.90
52209;DHT22;38507;53.132;6.394;2023-07-20T08:50:25;21.30;99.90
52209;DHT22;38507;53.132;6.394;2023-07-20T08:52:53;21.60;99.90
52209;DHT22;38507;53.132;6.394;2023-07-20T08:55:21;22.00;99.90
52209;DHT22;38507;53.132;6.394;2023-07-20T08:57:49;22.00;99.90
52209;DHT22;38507;53.132;6.394;2023-07-20T09:00:17;22.00;99.90
52209;DHT22;38507;53.132;6.394;2023-07-20T09:02:46;21.60;99.90
52209;DHT22;38507;53.132;6.394;2023-07-20T09:05:11;20.80;99.90
52209;DHT22;38507;53.132;6.394;2023-07-20T09:07:40;20.70;99.90
52209;DHT22;38507;53.132;6.394;2023-07-20T09:10:06;20.70;99.90
52209;DHT22;38507;53.132;6.394;2023-07-20T09:12:36;20.60;99.90
52209;DHT22;38507;53.132;6.394;2023-07-20T09:15:03;20.60;99.90
52209;DHT22;38507;53.132;6.394;2023-07-20T09:17:29;20.50;99.90
52209;DHT22;38507;53.132;6.394;2023-07-20T09:19:55;20.70;99.90
52209;DHT22;38507;53.132;6.394;2023-07-20T09:22:20;20.90;99.90
52209;DHT22;38507;53.132;6.394;2023-07-20T09:24:46;21.20;99.90
52209;DHT22;38507;53.132;6.394;2023-07-20T09:27:12;21.10;99.90
52209;DHT22;38507;53.132;6.394;2023-07-20T09:29:51;20.70;99.90
52209;DHT22;38507;53.132;6.394;2023-07-20T09:32:20;21.10;99.90
52209;DHT22;38507;53.132;6.394;2023-07-20T09:34:47;21.60;99.90
52209;DHT22;38507;53.132;6.394;2023-07-20T09:37:12;22.00;99.90
52209;DHT22;38507;53.132;6.394;2023-07-20T09:39:45;22.10;99.90
52209;DHT22;38507;53.132;6.394;2023-07-20T09:42:12;21.90;99.90
52209;DHT22;38507;53.132;6.394;2023-07-20T09:44:39;21.80;99.90
52209;DHT22;38507;53.132;6.394;2023-07-20T09:47:05;21.60;99.90
52209;DHT22;38507;53.132;6.394;2023-07-20T09:49:31;21.50;99.90
52209;DHT22;38507;53.132;6.394;2023-07-20T09:52:00;21.70;99.90
52209;DHT22;38507;53.132;6.394;2023-07-20T09:54:28;22.00;99.90
52209;DHT22;38507;53.132;6.394;2023-07-20T09:56:55;21.70;99.90
52209;DHT22;38507;53.132;6.394;2023-07-20T09:59:21;22.10;99.90
52209;DHT22;38507;53.132;6.394;2023-07-20T10:01:47;22.40;99.90
52209;DHT22;38507;53.132;6.394;2023-07-20T10:04:16;22.50;99.90
52209;DHT22;38507;53.132;6.394;2023-07-20T10:06:47;22.40;99.90
52209;DHT22;38507;53.132;6.394;2023-07-20T10:09:15;22.40;99.90
52209;DHT22;38507;53.132;6.394;2023-07-20T10:11:46;22.50;99.90
52209;DHT22;38507;53.132;6.394;2023-07-20T10:14:20;22.30;99.70
52209;DHT22;38507;53.132;6.394;2023-07-20T10:16:58;22.40;99.00
52209;DHT22;38507;53.132;6.394;2023-07-20T10:19:47;22.30;98.60
52209;DHT22;38507;53.132;6.394;2023-07-20T10:22:19;22.70;98.90
52209;DHT22;38507;53.132;6.394;2023-07-20T10:24:49;22.30;99.00
52209;DHT22;38507;53.132;6.394;2023-07-20T10:27:15;22.70;99.90
52209;DHT22;38507;53.132;6.394;2023-07-20T10:29:41;23.00;99.20
52209;DHT22;38507;53.132;6.394;2023-07-20T10:32:08;23.20;99.90
52209;DHT22;38507;53.132;6.394;2023-07-20T10:34:34;23.30;98.60
52209;DHT22;38507;53.132;6.394;2023-07-20T10:37:00;23.00;99.20
52209;DHT22;38507;53.132;6.394;2023-07-20T10:39:27;22.80;99.30
52209;DHT22;38507;53.132;6.394;2023-07-20T10:42:09;22.40;99.60
52209;DHT22;38507;53.132;6.394;2023-07-20T10:44:39;22.10;97.60
52209;DHT22;38507;53.132;6.394;2023-07-20T10:47:12;22.10;99.20
52209;DHT22;38507;53.132;6.394;2023-07-20T10:49:58;22.20;98.90
52209;DHT22;38507;53.132;6.394;2023-07-20T10:52:25;22.10;98.20
52209;DHT22;38507;53.132;6.394;2023-07-20T10:54:51;22.00;99.40
52209;DHT22;38507;53.132;6.394;2023-07-20T10:57:30;21.90;99.30
52209;DHT22;38507;53.132;6.394;2023-07-20T11:00:12;21.60;98.00
52209;DHT22;38507;53.132;6.394;2023-07-20T11:02:46;21.40;97.30
52209;DHT22;38507;53.132;6.394;2023-07-20T11:05:37;21.60;99.10
52209;DHT22;38507;53.132;6.394;2023-07-20T11:08:11;22.00;99.10
52209;DHT22;38507;53.132;6.394;2023-07-20T11:10:37;22.30;98.70
52209;DHT22;38507;53.132;6.394;2023-07-20T11:13:19;22.50;99.00
52209;DHT22;38507;53.132;6.394;2023-07-20T11:18:21;22.90;98.50
52209;DHT22;38507;53.132;6.394;2023-07-20T11:20:51;23.20;98.80
52209;DHT22;38507;53.132;6.394;2023-07-20T11:23:17;23.60;98.70
52209;DHT22;38507;53.132;6.394;2023-07-20T11:25:42;23.60;97.90
52209;DHT22;38507;53.132;6.394;2023-07-20T11:28:09;23.70;98.10
52209;DHT22;38507;53.132;6.394;2023-07-20T11:30:39;23.60;97.90
52209;DHT22;38507;53.132;6.394;2023-07-20T11:33:07;23.50;98.20
52209;DHT22;38507;53.132;6.394;2023-07-20T11:35:42;23.50;98.00
52209;DHT22;38507;53.132;6.394;2023-07-20T11:38:09;23.20;95.80
52209;DHT22;38507;53.132;6.394;2023-07-20T11:40:35;23.20;97.70
52209;DHT22;38507;53.132;6.394;2023-07-20T11:43:01;22.80;97.60
52209;DHT22;38507;53.132;6.394;2023-07-20T11:45:27;22.60;97.50
52209;DHT22;38507;53.132;6.394;2023-07-20T11:47:58;22.60;98.00
52209;DHT22;38507;53.132;6.394;2023-07-20T11:50:24;22.40;98.10
52209;DHT22;38507;53.132;6.394;2023-07-20T11:52:50;22.50;98.20
52209;DHT22;38507;53.132;6.394;2023-07-20T11:55:16;22.30;98.20
52209;DHT22;38507;53.132;6.394;2023-07-20T11:58:01;22.10;98.10
52209;DHT22;38507;53.132;6.394;2023-07-20T12:00:26;21.90;96.80
52209;DHT22;38507;53.132;6.394;2023-07-20T12:02:53;21.90;98.00
52209;DHT22;38507;53.132;6.394;2023-07-20T12:05:19;21.90;98.20
52209;DHT22;38507;53.132;6.394;2023-07-20T12:07:45;21.80;98.10
52209;DHT22;38507;53.132;6.394;2023-07-20T12:10:11;22.00;97.90
52209;DHT22;38507;53.132;6.394;2023-07-20T12:12:39;22.30;97.90
52209;DHT22;38507;53.132;6.394;2023-07-20T12:15:15;22.40;97.90
52209;DHT22;38507;53.132;6.394;2023-07-20T12:17:45;22.30;97.20
52209;DHT22;38507;53.132;6.394;2023-07-20T12:20:11;22.50;97.80
52209;DHT22;38507;53.132;6.394;2023-07-20T12:22:41;22.90;97.80
52209;DHT22;38507;53.132;6.394;2023-07-20T12:25:08;22.80;97.20
52209;DHT22;38507;53.132;6.394;2023-07-20T12:27:37;22.60;97.80
52209;DHT22;38507;53.132;6.394;2023-07-20T12:30:05;22.50;97.70
52209;DHT22;38507;53.132;6.394;2023-07-20T12:32:31;22.20;98.30
52209;DHT22;38507;53.132;6.394;2023-07-20T12:34:57;21.70;99.50
52209;DHT22;38507;53.132;6.394;2023-07-20T12:37:23;21.40;99.90
52209;DHT22;38507;53.132;6.394;2023-07-20T12:39:48;21.20;99.90
52209;DHT22;38507;53.132;6.394;2023-07-20T12:42:14;21.40;99.90
52209;DHT22;38507;53.132;6.394;2023-07-20T12:44:43;21.60;99.90
52209;DHT22;38507;53.132;6.394;2023-07-20T12:47:08;21.80;99.90
52209;DHT22;38507;53.132;6.394;2023-07-20T12:49:34;22.10;99.90
52209;DHT22;38507;53.132;6.394;2023-07-20T12:52:00;22.20;99.90
52209;DHT22;38507;53.132;6.394;2023-07-20T12:54:25;22.40;99.90
52209;DHT22;38507;53.132;6.394;2023-07-20T12:56:51;22.40;99.90
52209;DHT22;38507;53.132;6.394;2023-07-20T12:59:16;22.30;99.90
52209;DHT22;38507;53.132;6.394;2023-07-20T13:01:42;22.20;99.90
52209;DHT22;38507;53.132;6.394;2023-07-20T13:04:09;22.10;99.90
52209;DHT22;38507;53.132;6.394;2023-07-20T13:06:35;22.20;99.90
52209;DHT22;38507;53.132;6.394;2023-07-20T13:09:01;22.00;99.90
52209;DHT22;38507;53.132;6.394;2023-07-20T13:11:27;22.00;99.90
52209;DHT22;38507;53.132;6.394;2023-07-20T13:13:52;21.90;99.90
52209;DHT22;38507;53.132;6.394;2023-07-20T13:16:18;22.10;99.90
52209;DHT22;38507;53.132;6.394;2023-07-20T13:18:44;22.20;99.90
52209;DHT22;38507;53.132;6.394;2023-07-20T13:21:09;22.10;99.90
52209;DHT22;38507;53.132;6.394;2023-07-20T13:23:37;22.20;99.90
52209;DHT22;38507;53.132;6.394;2023-07-20T13:26:04;22.50;99.90
52209;DHT22;38507;53.132;6.394;2023-07-20T13:28:30;22.50;99.90
52209;DHT22;38507;53.132;6.394;2023-07-20T13:30:55;22.80;99.90
52209;DHT22;38507;53.132;6.394;2023-07-20T13:33:21;22.80;99.90
52209;DHT22;38507;53.132;6.394;2023-07-20T13:35:47;22.80;99.90
52209;DHT22;38507;53.132;6.394;2023-07-20T13:38:13;22.90;99.90
52209;DHT22;38507;53.132;6.394;2023-07-20T13:40:38;23.10;99.90
52209;DHT22;38507;53.132;6.394;2023-07-20T13:43:04;23.20;99.90
52209;DHT22;38507;53.132;6.394;2023-07-20T13:45:29;23.20;99.90
52209;DHT22;38507;53.132;6.394;2023-07-20T13:47:55;23.50;99.90
52209;DHT22;38507;53.132;6.394;2023-07-20T13:50:21;23.30;99.80
52209;DHT22;38507;53.132;6.394;2023-07-20T13:52:47;23.10;99.90
52209;DHT22;38507;53.132;6.394;2023-07-20T13:55:13;22.90;99.90
52209;DHT22;38507;53.132;6.394;2023-07-20T13:57:38;23.00;99.90
52209;DHT22;38507;53.132;6.394;2023-07-20T14:00:04;23.20;99.90
52209;DHT22;38507;53.132;6.394;2023-07-20T14:02:30;23.60;99.90
52209;DHT22;38507;53.132;6.394;2023-07-20T14:04:56;23.60;99.90
52209;DHT22;38507;53.132;6.394;2023-07-20T14:07:22;23.50;99.70
52209;DHT22;38507;53.132;6.394;2023-07-20T14:09:48;23.40;99.50
52209;DHT22;38507;53.132;6.394;2023-07-20T14:12:13;23.50;99.60
52209;DHT22;38507;53.132;6.394;2023-07-20T14:14:40;23.60;99.40
52209;DHT22;38507;53.132;6.394;2023-07-20T14:17:09;23.90;99.40
52209;DHT22;38507;53.132;6.394;2023-07-20T14:19:37;24.00;99.40
52209;DHT22;38507;53.132;6.394;2023-07-20T14:22:03;23.80;99.20
52209;DHT22;38507;53.132;6.394;2023-07-20T14:24:29;23.80;99.10
52209;DHT22;38507;53.132;6.394;2023-07-20T14:26:54;24.00;99.00
52209;DHT22;38507;53.132;6.394;2023-07-20T14:29:21;23.80;98.70
52209;DHT22;38507;53.132;6.394;2023-07-20T14:31:46;23.70;98.50
52209;DHT22;38507;53.132;6.394;2023-07-20T14:34:18;23.70;98.60
52209;DHT22;38507;53.132;6.394;2023-07-20T14:36:45;23.70;98.20
52209;DHT22;38507;53.132;6.394;2023-07-20T14:39:10;23.40;98.50
52209;DHT22;38507;53.132;6.394;2023-07-20T14:41:36;23.30;98.50
52209;DHT22;38507;53.132;6.394;2023-07-20T14:44:02;23.20;98.50
52209;DHT22;38507;53.132;6.394;2023-07-20T14:46:28;23.00;98.50
52209;DHT22;38507;53.132;6.394;2023-07-20T14:48:53;22.90;98.50
52209;DHT22;38507;53.132;6.394;2023-07-20T14:51:19;22.80;98.80
52209;DHT22;38507;53.132;6.394;2023-07-20T14:53:45;22.60;98.70
52209;DHT22;38507;53.132;6.394;2023-07-20T14:56:10;22.60;98.80
52209;DHT22;38507;53.132;6.394;2023-07-20T14:58:36;22.50;98.70
52209;DHT22;38507;53.132;6.394;2023-07-20T15:01:02;22.60;98.80
52209;DHT22;38507;53.132;6.394;2023-07-20T15:03:28;22.60;98.80
52209;DHT22;38507;53.132;6.394;2023-07-20T15:05:56;22.90;98.80
52209;DHT22;38507;53.132;6.394;2023-07-20T15:08:21;22.90;98.80
52209;DHT22;38507;53.132;6.394;2023-07-20T15:10:48;23.20;98.90
52209;DHT22;38507;53.132;6.394;2023-07-20T15:13:14;23.50;99.00
52209;DHT22;38507;53.132;6.394;2023-07-20T15:15:40;23.80;99.10
52209;DHT22;38507;53.132;6.394;2023-07-20T15:18:06;23.90;98.70
52209;DHT22;38507;53.132;6.394;2023-07-20T15:20:32;23.80;98.40
52209;DHT22;38507;53.132;6.394;2023-07-20T15:22:58;23.50;98.50
52209;DHT22;38507;53.132;6.394;2023-07-20T15:25:24;23.50;98.50
52209;DHT22;38507;53.132;6.394;2023-07-20T15:27:50;23.30;98.50
52209;DHT22;38507;53.132;6.394;2023-07-20T15:30:17;23.10;98.50
52209;DHT22;38507;53.132;6.394;2023-07-20T15:32:42;23.10;98.60
52209;DHT22;38507;53.132;6.394;2023-07-20T15:35:09;22.80;98.20
52209;DHT22;38507;53.132;6.394;2023-07-20T15:37:35;22.80;97.80
52209;DHT22;38507;53.132;6.394;2023-07-20T15:40:02;22.70;97.70
52209;DHT22;38507;53.132;6.394;2023-07-20T15:42:31;22.70;97.70